createdAt,value
2018-09-15T00:01:54.512Z,99.90
2018-09-15T00:04:22.242Z,99.90
2018-09-15T00:06:49.899Z,99.90
2018-09-15T00:09:17.528Z,99.90
2018-09-15T00:11:45.190Z,99.90
2018-09-15T00:14:12.871Z,99.90
2018-09-15T00:16:40.602Z,99.90
2018-09-15T00:19:08.268Z,99.90
2018-09-15T00:21:35.940Z,99.90
2018-09-15T00:24:03.619Z,99.90
2018-09-15T00:26:31.251Z,99.90
2018-09-15T00:28:59.899Z,99.90
2018-09-15T00:31:27.564Z,99.90
2018-09-15T00:33:56.205Z,99.90
2018-09-15T00:36:23.862Z,99.90
2018-09-15T00:38:51.548Z,99.90
2018-09-15T00:41:19.179Z,99.90
2018-09-15T00:43:46.850Z,99.90
2018-09-15T00:46:14.561Z,99.90
2018-09-15T00:48:42.252Z,99.90
2018-09-15T00:51:09.987Z,99.90
2018-09-15T00:53:37.591Z,99.90
2018-09-15T00:56:05.305Z,99.90
2018-09-15T00:58:32.985Z,99.90
2018-09-15T01:01:00.638Z,99.90
2018-09-15T01:03:28.327Z,99.90
2018-09-15T01:05:55.999Z,99.90
2018-09-15T01:08:23.638Z,99.90
2018-09-15T01:10:51.294Z,99.90
2018-09-15T01:13:18.986Z,99.90
2018-09-15T01:15:46.651Z,99.90
2018-09-15T01:18:14.282Z,99.90
2018-09-15T01:20:41.991Z,99.90
2018-09-15T01:23:09.690Z,99.90
2018-09-15T01:25:37.406Z,99.90
2018-09-15T01:28:05.127Z,99.90
2018-09-15T01:30:32.806Z,99.90
2018-09-15T01:33:00.439Z,99.90
2018-09-15T01:35:28.029Z,99.90
2018-09-15T01:37:55.695Z,99.90
2018-09-15T01:40:23.363Z,99.90
2018-09-15T01:42:50.999Z,99.90
2018-09-15T01:45:18.703Z,99.90
2018-09-15T01:47:46.400Z,99.90
2018-09-15T01:50:14.050Z,99.90
2018-09-15T01:52:41.719Z,99.90
2018-09-15T01:55:09.423Z,99.90
2018-09-15T01:57:37.181Z,99.90
2018-09-15T02:00:04.838Z,99.90
2018-09-15T02:02:32.572Z,99.90
2018-09-15T02:05:00.202Z,99.90
2018-09-15T02:07:27.889Z,99.90
2018-09-15T02:09:55.599Z,99.90
2018-09-15T02:12:23.815Z,99.90
2018-09-15T02:14:51.482Z,99.90
2018-09-15T02:17:19.122Z,99.90
2018-09-15T02:19:46.794Z,99.90
2018-09-15T02:22:14.458Z,99.90
2018-09-15T02:24:42.207Z,99.90
2018-09-15T02:27:09.914Z,99.90
2018-09-15T02:29:37.599Z,99.90
2018-09-15T02:32:05.328Z,99.90
2018-09-15T02:34:33.022Z,99.90
2018-09-15T02:37:00.733Z,99.90
2018-09-15T02:39:28.419Z,99.90
2018-09-15T02:41:56.150Z,99.90
2018-09-15T02:44:23.805Z,99.90
2018-09-15T02:46:51.486Z,99.90
2018-09-15T02:49:19.154Z,99.90
2018-09-15T02:51:47.007Z,99.90
2018-09-15T02:54:14.730Z,99.90
2018-09-15T02:56:42.419Z,99.90
2018-09-15T02:59:10.162Z,99.90
2018-09-15T03:01:37.810Z,99.90
2018-09-15T03:04:05.454Z,99.90
2018-09-15T03:06:36.270Z,99.90
2018-09-15T03:09:07.158Z,99.90
2018-09-15T03:11:34.878Z,99.90
2018-09-15T03:14:02.539Z,99.90
2018-09-15T03:16:30.294Z,99.90
2018-09-15T03:18:57.928Z,99.90
2018-09-15T03:21:25.586Z,99.90
2018-09-15T03:23:53.318Z,99.90
2018-09-15T03:26:20.967Z,99.90
2018-09-15T03:28:48.732Z,99.90
2018-09-15T03:31:16.439Z,99.90
2018-09-15T03:33:47.143Z,99.90
2018-09-15T03:36:14.810Z,99.90
2018-09-15T03:38:42.539Z,99.90
2018-09-15T03:41:10.226Z,99.90
2018-09-15T03:43:37.923Z,99.90
2018-09-15T03:46:05.606Z,99.90
2018-09-15T03:48:33.319Z,99.90
2018-09-15T03:51:01.003Z,99.90
2018-09-15T03:53:28.680Z,99.90
2018-09-15T03:55:56.425Z,99.90
2018-09-15T03:58:24.099Z,99.90
2018-09-15T04:00:52.798Z,99.90
2018-09-15T04:03:20.935Z,99.90
2018-09-15T04:05:48.605Z,99.90
2018-09-15T04:08:16.294Z,99.90
2018-09-15T04:10:44.231Z,99.90
2018-09-15T04:13:11.903Z,99.90
2018-09-15T04:15:39.654Z,99.90
2018-09-15T04:18:07.410Z,99.90
2018-09-15T04:20:35.087Z,99.90
2018-09-15T04:23:03.716Z,99.90
2018-09-15T04:25:31.330Z,99.90
2018-09-15T04:27:58.918Z,99.90
2018-09-15T04:30:26.630Z,99.90
2018-09-15T04:32:54.291Z,99.90
2018-09-15T04:35:21.888Z,99.90
2018-09-15T04:37:49.627Z,99.90
2018-09-15T04:40:17.302Z,99.90
2018-09-15T04:42:44.930Z,99.90
2018-09-15T04:45:13.658Z,99.90
2018-09-15T04:47:41.363Z,99.90
2018-09-15T04:50:09.006Z,99.90
2018-09-15T04:52:36.682Z,99.90
2018-09-15T04:55:04.403Z,99.90
2018-09-15T04:57:32.087Z,99.90
2018-09-15T04:59:59.763Z,99.90
2018-09-15T05:02:27.526Z,99.90
2018-09-15T05:04:55.236Z,99.90
2018-09-15T05:07:22.898Z,99.90
2018-09-15T05:09:50.537Z,99.90
2018-09-15T05:12:18.333Z,99.90
2018-09-15T05:14:45.966Z,99.90
2018-09-15T05:17:13.638Z,99.90
2018-09-15T05:19:41.263Z,99.90
2018-09-15T05:22:08.923Z,99.90
2018-09-15T05:24:36.635Z,99.90
2018-09-15T05:27:04.351Z,99.90
2018-09-15T05:29:32.032Z,99.90
2018-09-15T05:31:59.826Z,99.90
2018-09-15T05:34:27.414Z,99.90
2018-09-15T05:36:55.030Z,99.90
2018-09-15T05:39:22.614Z,99.90
2018-09-15T05:41:51.307Z,99.90
2018-09-15T05:44:18.943Z,99.90
2018-09-15T05:46:46.612Z,99.90
2018-09-15T05:49:14.252Z,99.90
2018-09-15T05:51:41.943Z,99.90
2018-09-15T05:54:09.570Z,99.90
2018-09-15T05:56:37.303Z,99.90
2018-09-15T05:59:05.395Z,99.90
2018-09-15T06:01:33.118Z,99.90
2018-09-15T06:04:00.812Z,99.90
2018-09-15T06:06:28.558Z,99.90
2018-09-15T06:08:59.651Z,99.90
2018-09-15T06:11:27.325Z,99.90
2018-09-15T06:13:55.032Z,99.90
2018-09-15T06:16:22.715Z,99.90
2018-09-15T06:18:50.331Z,99.90
2018-09-15T06:21:18.022Z,99.90
2018-09-15T06:23:45.639Z,99.90
2018-09-15T06:26:13.803Z,99.90
2018-09-15T06:28:41.863Z,99.90
2018-09-15T06:31:09.574Z,99.90
2018-09-15T06:33:37.205Z,99.90
2018-09-15T06:36:04.992Z,99.90
2018-09-15T06:38:32.722Z,99.90
2018-09-15T06:41:00.338Z,99.90
2018-09-15T06:43:28.006Z,99.90
2018-09-15T06:48:03.684Z,99.90
2018-09-15T06:50:31.326Z,99.90
2018-09-15T06:52:59.010Z,99.90
2018-09-15T06:55:26.771Z,99.90
2018-09-15T06:57:54.442Z,99.90
2018-09-15T07:00:22.094Z,99.90
2018-09-15T07:02:49.742Z,99.90
2018-09-15T07:05:17.386Z,99.90
2018-09-15T07:07:46.027Z,99.90
2018-09-15T07:10:13.626Z,99.90
2018-09-15T07:12:41.299Z,99.90
2018-09-15T07:15:08.947Z,99.90
2018-09-15T07:17:36.526Z,99.90
2018-09-15T07:20:04.576Z,99.90
2018-09-15T07:22:32.219Z,99.90
2018-09-15T07:24:59.930Z,99.90
2018-09-15T07:27:27.622Z,99.90
2018-09-15T07:29:55.277Z,99.90
2018-09-15T07:32:22.953Z,99.90
2018-09-15T07:34:50.735Z,99.90
2018-09-15T07:37:18.306Z,99.90
2018-09-15T07:39:46.031Z,99.90
2018-09-15T07:42:13.702Z,99.90
2018-09-15T07:44:41.366Z,99.90
2018-09-15T07:47:09.026Z,99.90
2018-09-15T07:49:36.678Z,99.90
2018-09-15T07:52:04.337Z,99.90
2018-09-15T07:54:31.982Z,99.90
2018-09-15T07:56:59.634Z,99.90
2018-09-15T07:59:27.415Z,99.90
2018-09-15T08:01:55.174Z,99.90
2018-09-15T08:04:22.794Z,99.90
2018-09-15T08:06:50.444Z,99.90
2018-09-15T08:09:18.080Z,99.90
2018-09-15T08:11:49.355Z,99.90
2018-09-15T08:14:16.910Z,99.90
2018-09-15T08:16:44.603Z,99.90
2018-09-15T08:19:12.376Z,99.90
2018-09-15T08:21:39.976Z,99.90
2018-09-15T08:24:07.643Z,99.90
2018-09-15T08:26:35.500Z,99.90
2018-09-15T08:29:02.938Z,99.90
2018-09-15T08:31:30.547Z,99.90
2018-09-15T08:33:58.174Z,99.90
2018-09-15T08:36:25.800Z,99.90
2018-09-15T08:38:53.463Z,99.90
2018-09-15T08:41:21.268Z,99.90
2018-09-15T08:43:48.870Z,99.90
2018-09-15T08:46:16.522Z,99.90
2018-09-15T08:48:44.203Z,99.90
2018-09-15T08:51:11.832Z,99.90
2018-09-15T08:53:39.482Z,99.90
2018-09-15T08:56:07.151Z,99.90
2018-09-15T08:58:34.855Z,99.90
2018-09-15T09:01:02.510Z,99.90
2018-09-15T09:03:30.242Z,99.90
2018-09-15T09:05:57.967Z,99.90
2018-09-15T09:08:25.608Z,99.90
2018-09-15T09:10:53.326Z,99.90
2018-09-15T09:13:20.987Z,99.90
2018-09-15T09:15:48.929Z,99.90
2018-09-15T09:18:16.595Z,99.90
2018-09-15T09:20:44.261Z,99.90
2018-09-15T09:23:11.958Z,99.90
2018-09-15T09:25:39.611Z,99.90
2018-09-15T09:28:10.570Z,99.90
2018-09-15T09:30:38.180Z,99.90
2018-09-15T09:33:05.878Z,99.90
2018-09-15T09:35:33.489Z,99.90
2018-09-15T09:38:01.162Z,99.90
2018-09-15T09:40:28.854Z,99.90
2018-09-15T09:42:56.566Z,99.90
2018-09-15T09:45:24.217Z,99.90
2018-09-15T09:47:51.850Z,99.90
2018-09-15T09:50:19.492Z,99.90
2018-09-15T09:52:47.114Z,99.10
2018-09-15T09:55:14.761Z,99.50
2018-09-15T09:57:42.474Z,98.90
2018-09-15T10:00:19.342Z,99.10
2018-09-15T10:02:47.066Z,99.00
2018-09-15T10:05:14.722Z,97.90
2018-09-15T10:07:42.415Z,94.30
2018-09-15T10:10:10.114Z,95.60
2018-09-15T10:12:37.731Z,99.90
2018-09-15T10:15:05.444Z,96.50
2018-09-15T10:17:33.118Z,93.70
2018-09-15T10:20:00.776Z,95.10
2018-09-15T10:22:28.502Z,94.40
2018-09-15T10:24:56.094Z,96.60
2018-09-15T10:27:26.835Z,93.30
2018-09-15T10:29:54.512Z,91.10
2018-09-15T10:32:22.194Z,91.50
2018-09-15T10:34:49.789Z,90.80
2018-09-15T10:37:17.406Z,91.70
2018-09-15T10:39:45.037Z,92.00
2018-09-15T10:42:12.754Z,91.80
2018-09-15T10:44:40.368Z,92.00
2018-09-15T10:47:07.988Z,93.20
2018-09-15T10:49:35.721Z,91.10
2018-09-15T10:52:03.419Z,91.60
2018-09-15T10:54:31.110Z,94.10
2018-09-15T10:56:58.767Z,87.20
2018-09-15T10:59:26.454Z,90.30
2018-09-15T11:01:54.239Z,89.20
2018-09-15T11:04:21.910Z,93.40
2018-09-15T11:06:49.770Z,94.80
2018-09-15T11:09:17.405Z,96.80
2018-09-15T11:11:45.250Z,93.50
2018-09-15T11:14:12.947Z,92.40
2018-09-15T11:16:40.652Z,92.60
2018-09-15T11:19:08.285Z,93.20
2018-09-15T11:21:35.889Z,93.50
2018-09-15T11:24:04.649Z,94.10
2018-09-15T11:26:32.287Z,96.80
2018-09-15T11:28:59.878Z,93.60
2018-09-15T11:31:27.552Z,93.50
2018-09-15T11:33:55.539Z,94.50
2018-09-15T11:36:23.219Z,96.20
2018-09-15T11:38:50.850Z,97.40
2018-09-15T11:41:18.503Z,94.40
2018-09-15T11:43:46.131Z,94.80
2018-09-15T11:46:13.760Z,94.10
2018-09-15T11:48:41.457Z,95.00
2018-09-15T11:51:09.077Z,96.70
2018-09-15T11:53:36.779Z,95.90
2018-09-15T11:56:04.458Z,96.50
2018-09-15T11:58:32.155Z,95.50
2018-09-15T12:01:02.610Z,96.30
2018-09-15T12:03:30.254Z,92.10
2018-09-15T12:05:57.990Z,91.10
2018-09-15T12:08:25.650Z,93.50
2018-09-15T12:10:53.346Z,92.90
2018-09-15T12:13:21.002Z,91.80
2018-09-15T12:15:49.259Z,93.90
2018-09-15T12:18:17.064Z,94.40
2018-09-15T12:20:44.867Z,95.50
2018-09-15T12:23:12.762Z,93.10
2018-09-15T12:25:40.776Z,90.40
2018-09-15T12:28:08.550Z,91.30
2018-09-15T12:30:37.161Z,92.70
2018-09-15T12:33:04.856Z,93.70
2018-09-15T12:35:32.586Z,93.80
2018-09-15T12:38:00.224Z,94.00
2018-09-15T12:40:27.953Z,93.70
2018-09-15T12:42:55.590Z,94.00
2018-09-15T12:45:23.295Z,91.00
2018-09-15T12:47:50.937Z,92.40
2018-09-15T12:50:18.586Z,93.40
2018-09-15T12:52:46.226Z,93.20
2018-09-15T12:55:13.909Z,95.00
2018-09-15T12:57:41.584Z,93.20
2018-09-15T13:00:09.181Z,89.50
2018-09-15T13:02:36.879Z,91.80
2018-09-15T13:05:04.571Z,92.60
2018-09-15T13:07:32.231Z,91.40
2018-09-15T13:09:59.915Z,91.00
2018-09-15T13:12:27.658Z,91.30
2018-09-15T13:14:55.318Z,90.80
2018-09-15T13:17:22.975Z,90.70
2018-09-15T13:19:50.651Z,86.50
2018-09-15T13:22:18.294Z,90.90
2018-09-15T13:24:46.961Z,92.10
2018-09-15T13:27:18.066Z,93.50
2018-09-15T13:29:45.917Z,87.10
2018-09-15T13:32:13.499Z,92.00
2018-09-15T13:34:41.212Z,90.30
2018-09-15T13:37:08.869Z,91.40
2018-09-15T13:39:36.477Z,92.60
2018-09-15T13:42:04.143Z,94.00
2018-09-15T13:44:31.826Z,92.30
2018-09-15T13:46:59.438Z,91.70
2018-09-15T13:49:27.083Z,90.70
2018-09-15T13:51:55.663Z,88.40
2018-09-15T13:54:23.323Z,90.10
2018-09-15T13:56:50.946Z,88.90
2018-09-15T13:59:19.170Z,89.60
2018-09-15T14:01:47.815Z,89.70
2018-09-15T14:04:15.442Z,91.30
2018-09-15T14:06:43.087Z,90.60
2018-09-15T14:09:11.727Z,85.50
2018-09-15T14:11:39.369Z,92.00
2018-09-15T14:14:07.063Z,83.40
2018-09-15T14:16:34.814Z,89.00
2018-09-15T14:19:02.678Z,77.40
2018-09-15T14:21:30.414Z,80.20
2018-09-15T14:23:58.006Z,88.60
2018-09-15T14:26:25.673Z,77.20
2018-09-15T14:28:53.414Z,79.30
2018-09-15T14:31:21.078Z,79.40
2018-09-15T14:33:48.747Z,88.60
2018-09-15T14:36:16.442Z,92.10
2018-09-15T14:38:44.082Z,87.10
2018-09-15T14:41:11.702Z,85.20
2018-09-15T14:43:39.339Z,84.70
2018-09-15T14:46:06.990Z,84.20
2018-09-15T14:48:34.698Z,82.80
2018-09-15T14:51:02.347Z,82.80
2018-09-15T14:53:30.090Z,86.30
2018-09-15T14:55:57.738Z,86.20
2018-09-15T14:58:25.470Z,83.80
2018-09-15T15:00:53.070Z,87.80
2018-09-15T15:03:20.751Z,91.10
2018-09-15T15:05:48.407Z,90.40
2018-09-15T15:08:16.090Z,86.70
2018-09-15T15:10:43.774Z,90.20
2018-09-15T15:13:11.395Z,87.80
2018-09-15T15:15:39.068Z,90.80
2018-09-15T15:18:06.698Z,90.00
2018-09-15T15:20:34.331Z,90.50
2018-09-15T15:23:02.103Z,90.40
2018-09-15T15:25:29.811Z,91.50
2018-09-15T15:27:57.493Z,91.30
2018-09-15T15:30:25.203Z,91.50
2018-09-15T15:32:52.927Z,91.40
2018-09-15T15:35:20.695Z,93.80
2018-09-15T15:37:48.370Z,94.70
2018-09-15T15:40:15.966Z,94.60
2018-09-15T15:42:43.614Z,95.60
2018-09-15T15:45:11.344Z,92.70
2018-09-15T15:47:39.103Z,93.20
2018-09-15T15:50:06.820Z,93.40
2018-09-15T15:52:34.460Z,94.20
2018-09-15T15:55:02.129Z,94.60
2018-09-15T15:57:29.790Z,92.00
2018-09-15T15:59:57.338Z,92.20
2018-09-15T16:02:24.974Z,91.90
2018-09-15T16:04:52.642Z,93.70
2018-09-15T16:07:20.312Z,93.40
2018-09-15T16:09:48.020Z,91.70
2018-09-15T16:12:15.638Z,91.20
2018-09-15T16:14:43.269Z,90.70
2018-09-15T16:17:10.971Z,90.20
2018-09-15T16:19:38.634Z,90.10
2018-09-15T16:22:06.354Z,92.30
2018-09-15T16:24:34.031Z,93.80
2018-09-15T16:27:01.653Z,94.60
2018-09-15T16:29:29.323Z,96.50
2018-09-15T16:31:56.927Z,95.90
2018-09-15T16:34:24.554Z,95.30
2018-09-15T16:36:52.183Z,95.00
2018-09-15T16:39:19.800Z,96.70
2018-09-15T16:41:47.459Z,96.90
2018-09-15T16:44:15.146Z,97.10
2018-09-15T16:46:42.794Z,97.90
2018-09-15T16:49:10.487Z,96.60
2018-09-15T16:51:38.178Z,98.00
2018-09-15T16:54:06.623Z,96.20
2018-09-15T16:56:34.850Z,97.40
2018-09-15T16:59:02.522Z,97.60
2018-09-15T17:01:30.146Z,97.50
2018-09-15T17:03:57.795Z,99.20
2018-09-15T17:06:25.479Z,99.60
2018-09-15T17:08:53.110Z,99.90
2018-09-15T17:11:20.810Z,99.90
2018-09-15T17:13:48.439Z,99.90
2018-09-15T17:16:16.086Z,99.90
2018-09-15T17:18:43.827Z,99.90
2018-09-15T17:21:11.443Z,99.90
2018-09-15T17:23:39.054Z,99.90
2018-09-15T17:26:06.726Z,99.90
2018-09-15T17:28:34.418Z,99.90
2018-09-15T17:31:02.031Z,99.90
2018-09-15T17:33:29.682Z,99.90
2018-09-15T17:35:57.327Z,99.90
2018-09-15T17:38:25.046Z,99.60
2018-09-15T17:40:52.841Z,99.90
2018-09-15T17:43:20.535Z,99.90
2018-09-15T17:45:48.260Z,99.50
2018-09-15T17:48:15.990Z,99.40
2018-09-15T17:50:43.679Z,99.90
2018-09-15T17:53:11.335Z,99.90
2018-09-15T17:55:39.006Z,99.60
2018-09-15T17:58:06.755Z,99.90
2018-09-15T18:00:34.366Z,99.90
2018-09-15T18:03:02.979Z,99.90
2018-09-15T18:05:30.729Z,99.90
2018-09-15T18:07:58.425Z,99.90
2018-09-15T18:10:26.159Z,99.90
2018-09-15T18:12:54.139Z,99.90
2018-09-15T18:15:21.866Z,99.90
2018-09-15T18:17:49.551Z,99.90
2018-09-15T18:20:17.222Z,99.90
2018-09-15T18:22:44.850Z,99.90
2018-09-15T18:25:12.519Z,99.90
2018-09-15T18:27:40.170Z,99.90
2018-09-15T18:30:07.934Z,99.90
2018-09-15T18:32:35.573Z,99.90
2018-09-15T18:35:03.510Z,99.90
2018-09-15T18:37:31.263Z,99.90
2018-09-15T18:39:59.011Z,99.90
2018-09-15T18:42:30.179Z,99.90
2018-09-15T18:44:57.782Z,99.90
2018-09-15T18:47:25.507Z,99.90
2018-09-15T18:49:53.187Z,99.90
2018-09-15T18:52:20.785Z,99.90
2018-09-15T18:54:48.526Z,99.90
2018-09-15T18:57:16.732Z,99.90
2018-09-15T18:59:44.352Z,99.90
2018-09-15T19:02:12.057Z,99.90
2018-09-15T19:04:39.688Z,99.90
2018-09-15T19:07:07.464Z,99.90
2018-09-15T19:09:35.207Z,99.90
2018-09-15T19:12:02.870Z,99.90
2018-09-15T19:14:30.519Z,99.90
2018-09-15T19:16:58.309Z,99.90
2018-09-15T19:19:29.098Z,99.90
2018-09-15T19:21:56.799Z,99.90
2018-09-15T19:24:25.914Z,99.90
2018-09-15T19:26:57.110Z,99.90
2018-09-15T19:29:25.014Z,99.90
2018-09-15T19:31:53.795Z,99.90
2018-09-15T19:34:25.286Z,99.90
2018-09-15T19:36:53.011Z,99.90
2018-09-15T19:39:21.364Z,99.90
2018-09-15T19:41:49.189Z,99.90
2018-09-15T19:44:17.092Z,99.90
2018-09-15T19:46:44.847Z,99.90
2018-09-15T19:49:12.814Z,99.90
2018-09-15T19:51:40.812Z,99.90
2018-09-15T19:54:09.627Z,99.90
2018-09-15T19:56:37.459Z,99.90
2018-09-15T19:59:05.261Z,99.90
2018-09-15T20:01:32.898Z,99.90
2018-09-15T20:04:00.542Z,99.90
2018-09-15T20:06:28.202Z,99.90
2018-09-15T20:08:59.315Z,99.90
2018-09-15T20:11:27.060Z,99.90
2018-09-15T20:13:54.790Z,99.90
2018-09-15T20:16:21.315Z,99.90
2018-09-15T20:18:47.843Z,99.90
2018-09-15T20:21:14.427Z,99.90
2018-09-15T20:23:42.066Z,99.90
2018-09-15T20:26:09.656Z,99.90
2018-09-15T20:28:37.333Z,99.90
2018-09-15T20:31:05.506Z,99.90
2018-09-15T20:33:33.238Z,99.90
2018-09-15T20:36:00.883Z,99.90
2018-09-15T20:38:28.572Z,99.90
2018-09-15T20:40:56.239Z,99.90
2018-09-15T20:43:24.306Z,99.90
2018-09-15T20:45:51.918Z,99.90
2018-09-15T20:48:19.577Z,99.90
2018-09-15T20:51:50.676Z,99.90
2018-09-15T20:54:18.443Z,99.90
2018-09-15T20:56:46.143Z,99.90
2018-09-15T20:59:13.874Z,99.90
2018-09-15T21:01:41.610Z,99.90
2018-09-15T21:04:09.294Z,99.90
2018-09-15T21:06:36.938Z,99.90
2018-09-15T21:09:07.562Z,99.90
2018-09-15T21:11:35.274Z,99.90
2018-09-15T21:14:02.910Z,99.90
2018-09-15T21:16:30.522Z,99.90
2018-09-15T21:18:58.274Z,99.90
2018-09-15T21:21:25.945Z,99.90
2018-09-15T21:23:53.593Z,99.90
2018-09-15T21:26:24.823Z,99.90
2018-09-15T21:28:52.494Z,99.90
2018-09-15T21:31:20.110Z,99.90
2018-09-15T21:33:47.726Z,99.90
2018-09-15T21:38:23.634Z,99.90
2018-09-15T21:40:51.284Z,99.90
2018-09-15T21:43:18.963Z,99.90
2018-09-15T21:45:46.619Z,99.90
2018-09-15T21:48:14.254Z,99.90
2018-09-15T21:50:41.920Z,99.90
2018-09-15T21:53:09.566Z,99.90
2018-09-15T21:55:37.208Z,99.90
2018-09-15T21:58:05.066Z,99.90
2018-09-15T22:00:32.810Z,99.90
2018-09-15T22:03:00.439Z,99.90
2018-09-15T22:05:28.243Z,99.90
2018-09-15T22:07:55.935Z,99.90
2018-09-15T22:10:29.322Z,99.90
2018-09-15T22:12:57.022Z,99.90
2018-09-15T22:15:26.618Z,99.90
2018-09-15T22:17:56.222Z,99.90
2018-09-15T22:20:23.927Z,99.90
2018-09-15T22:22:51.607Z,99.90
2018-09-15T22:25:19.391Z,99.90
2018-09-15T22:27:47.623Z,99.90
2018-09-15T22:30:15.230Z,99.90
2018-09-15T22:32:42.874Z,99.90
2018-09-15T22:35:10.544Z,99.90
2018-09-15T22:37:38.119Z,99.90
2018-09-15T22:40:05.834Z,99.90
2018-09-15T22:42:33.542Z,99.90
2018-09-15T22:45:01.156Z,99.90
2018-09-15T22:47:28.870Z,99.90
2018-09-15T22:49:56.482Z,99.90
2018-09-15T22:52:24.229Z,99.90
2018-09-15T22:54:51.835Z,99.90
2018-09-15T22:57:19.607Z,99.90
2018-09-15T22:59:47.243Z,99.90
2018-09-15T23:02:14.883Z,99.90
2018-09-15T23:04:45.834Z,99.90
2018-09-15T23:07:13.464Z,99.90
2018-09-15T23:09:44.940Z,99.90
2018-09-15T23:12:12.690Z,99.90
2018-09-15T23:14:41.142Z,99.90
2018-09-15T23:17:08.793Z,99.90
2018-09-15T23:19:36.507Z,99.90
2018-09-15T23:22:04.191Z,99.90
2018-09-15T23:24:31.910Z,99.90
2018-09-15T23:26:59.620Z,99.90
2018-09-15T23:29:27.243Z,99.90
2018-09-15T23:31:54.906Z,99.90
2018-09-15T23:34:22.591Z,99.90
2018-09-15T23:36:50.176Z,99.90
2018-09-15T23:39:17.906Z,99.90
2018-09-15T23:41:45.528Z,99.90
2018-09-15T23:44:13.196Z,99.90
2018-09-15T23:46:40.866Z,99.90
2018-09-15T23:49:08.515Z,99.90
2018-09-15T23:51:36.160Z,99.90
2018-09-15T23:54:03.870Z,99.90
2018-09-15T23:56:31.461Z,99.90
2018-09-15T23:58:59.121Z,99.90
